Time;durP1;ratioP1;P1;durP2;ratioP2;P2;SDS_P1;SDS_P2;PMS_P1;PMS_P2;Temp;Humidity;BMP_temperature;BMP_pressure;BME280_temperature;BME280_humidity;BME280_pressure;Samples;Min_cycle;Max_cycle;Signal;HPM_P1;HPM_P2
2022/08/26 00:02:03;;;;;;;21.33;11.08;;;;;;;20.46;81.89;100159.17;2057671;86;31076;-66
2022/08/26 00:05:05;;;;;;;26.20;11.33;;;;;;;20.40;82.00;100156.53;2057675;86;32992;-66
2022/08/26 00:08:08;;;;;;;22.30;11.63;;;;;;;20.34;82.02;100148.45;2057770;86;29340;-67
2022/08/26 00:11:10;;;;;;;17.92;11.03;;;;;;;20.30;82.14;100145.65;2057719;86;27784;-67
2022/08/26 00:14:12;;;;;;;18.75;11.43;;;;;;;20.24;82.09;100142.16;2057625;86;28702;-64
2022/08/26 00:17:14;;;;;;;19.40;9.35;;;;;;;20.19;81.94;100145.80;2057527;86;31039;-64
2022/08/26 00:20:19;;;;;;;25.70;10.13;;;;;;;20.14;82.09;100142.16;2057629;86;32795;-65
2022/08/26 00:23:21;;;;;;;23.07;11.85;;;;;;;20.13;82.22;100140.92;2094763;84;29332;-64
2022/08/26 00:26:22;;;;;;;28.90;14.33;;;;;;;20.09;82.30;100144.95;2101700;84;27666;-66
2022/08/26 00:29:24;;;;;;;20.10;11.05;;;;;;;20.05;82.58;100137.55;2102044;84;28629;-65
2022/08/26 00:32:26;;;;;;;25.82;11.43;;;;;;;20.00;82.65;100138.50;2101570;84;31072;-64
2022/08/26 00:35:28;;;;;;;23.18;12.10;;;;;;;19.99;82.93;100142.22;2101788;84;32969;-67
2022/08/26 00:38:29;;;;;;;22.50;11.80;;;;;;;19.94;82.83;100137.69;2101895;84;29316;-67
2022/08/26 00:41:31;;;;;;;22.22;12.98;;;;;;;19.89;82.77;100133.53;2102063;84;27691;-66
2022/08/26 00:44:32;;;;;;;23.05;11.48;;;;;;;19.86;82.87;100133.77;2102096;84;29450;-64
2022/08/26 00:47:57;;;;;;;18.40;9.73;;;;;;;19.81;82.71;100130.64;2102004;84;31226;-65
2022/08/26 00:51:04;;;;;;;24.20;11.38;;;;;;;19.77;82.67;100123.75;2100095;84;32976;-65
2022/08/26 00:54:07;;;;;;;23.02;11.20;;;;;;;19.72;82.81;100126.90;2057070;86;29352;-64
2022/08/26 00:57:12;;;;;;;19.15;11.60;;;;;;;19.68;82.72;100128.69;2057793;86;27724;-64
2022/08/26 01:00:19;;;;;;;24.75;11.25;;;;;;;19.65;82.83;100128.45;2057834;86;28689;-66
2022/08/26 01:03:25;;;;;;;18.40;12.07;;;;;;;19.60;82.97;100122.59;2057842;86;31043;-65
2022/08/26 01:06:27;;;;;;;20.05;10.85;;;;;;;19.56;82.95;100121.14;2057889;86;33741;-66
2022/08/26 01:09:29;;;;;;;15.93;9.03;;;;;;;19.52;83.08;100118.33;2057953;86;29334;-65
2022/08/26 01:12:37;;;;;;;17.42;10.70;;;;;;;19.47;83.16;100124.19;2057942;86;27653;-66
2022/08/26 01:15:48;;;;;;;30.82;13.28;;;;;;;19.43;83.12;100110.52;2098065;84;28632;-66
2022/08/26 01:18:53;;;;;;;18.10;10.63;;;;;;;19.38;83.23;100115.02;2100881;84;32042;-67
2022/08/26 01:22:02;;;;;;;19.82;10.40;;;;;;;19.36;83.12;100122.95;2102128;83;33789;-67
2022/08/26 01:25:04;;;;;;;22.98;11.05;;;;;;;19.32;83.13;100127.77;2102630;84;28815;-63
2022/08/26 01:28:11;;;;;;;18.82;12.05;;;;;;;19.28;83.31;100124.97;2102572;84;27699;-64
2022/08/26 01:31:16;;;;;;;20.60;11.15;;;;;;;19.23;83.29;100128.09;2102460;84;29370;-66
2022/08/26 01:34:25;;;;;;;22.77;11.70;;;;;;;19.21;83.49;100127.88;2102515;84;31026;-65
2022/08/26 01:37:32;;;;;;;23.75;11.30;;;;;;;19.18;83.44;100124.08;2102612;84;32938;-64
2022/08/26 01:40:36;;;;;;;17.77;9.50;;;;;;;19.15;83.73;100127.06;2102621;84;29342;-64
2022/08/26 01:43:37;;;;;;;;;;;;;;;19.12;83.62;100130.41;2094285;84;27744;-65
2022/08/26 01:46:39;;;;;;;20.88;10.90;;;;;;;19.09;83.81;100127.98;2057959;84;28631;-65
2022/08/26 01:49:42;;;;;;;16.97;10.35;;;;;;;19.05;83.76;100121.58;2054876;86;31262;-65
2022/08/26 01:52:46;;;;;;;24.40;11.03;;;;;;;19.02;83.76;100123.23;2055261;86;32975;-67
2022/08/26 01:55:52;;;;;;;26.70;11.90;;;;;;;18.98;83.90;100124.86;2055390;86;30453;-66
2022/08/26 01:58:57;;;;;;;20.08;11.38;;;;;;;18.97;84.02;100124.98;2055507;86;27686;-65
2022/08/26 02:01:58;;;;;;;25.10;13.62;;;;;;;18.93;84.06;100119.45;2055300;84;28657;-67
2022/08/26 02:05:04;;;;;;;18.77;10.82;;;;;;;18.91;84.01;100129.58;2055171;86;31010;-66
2022/08/26 02:08:06;;;;;;;20.50;10.18;;;;;;;18.89;84.06;100132.41;2055133;86;33857;-67
2022/08/26 02:11:08;;;;;;;19.65;10.38;;;;;;;18.86;84.19;100129.98;2055193;86;29343;-65
2022/08/26 02:14:14;;;;;;;19.42;9.90;;;;;;;18.84;84.20;100123.83;2073726;84;27808;-65
2022/08/26 02:17:18;;;;;;;13.18;10.08;;;;;;;18.82;84.22;100122.58;2100711;84;28672;-64
2022/08/26 02:20:20;;;;;;;18.20;11.20;;;;;;;18.80;84.39;100121.85;2102689;84;31032;-64
2022/08/26 02:23:22;;;;;;;16.90;10.43;;;;;;;18.80;84.38;100118.30;2102303;83;34139;-64
2022/08/26 02:26:24;;;;;;;16.05;10.00;;;;;;;18.78;84.33;100123.84;2102778;84;29368;-64
2022/08/26 02:29:34;;;;;;;15.25;9.80;;;;;;;18.77;84.44;100119.91;2102818;84;27690;-65
2022/08/26 02:32:35;;;;;;;17.42;11.05;;;;;;;18.76;84.45;100119.55;2102999;84;28644;-64
2022/08/26 02:35:38;;;;;;;17.32;9.13;;;;;;;18.74;84.55;100127.84;2102970;84;31413;-65
2022/08/26 02:38:42;;;;;;;14.60;9.65;;;;;;;18.72;84.48;100127.11;2102722;84;32972;-64
2022/08/26 02:41:45;;;;;;;19.12;9.90;;;;;;;18.70;84.64;100118.23;2103110;84;29338;-65
2022/08/26 02:44:48;;;;;;;16.95;8.25;;;;;;;18.66;84.56;100125.80;2074109;84;27617;-66
2022/08/26 02:47:51;;;;;;;11.95;8.78;;;;;;;18.62;84.56;100121.61;2061311;86;43085;-67
2022/08/26 02:50:52;;;;;;;15.32;9.18;;;;;;;18.59;84.63;100116.96;2061138;86;32019;-66
2022/08/26 02:53:54;;;;;;;13.55;9.58;;;;;;;18.56;84.68;100119.42;2061372;86;33393;-66
2022/08/26 02:56:55;;;;;;;22.17;9.53;;;;;;;18.53;84.63;100115.64;2061355;86;29332;-65
2022/08/26 02:59:56;;;;;;;18.70;9.20;;;;;;;18.51;84.81;100119.83;2061584;86;27742;-65
2022/08/26 03:02:58;;;;;;;12.50;9.68;;;;;;;18.49;84.96;100115.02;2061388;86;29544;-64
2022/08/26 03:06:00;;;;;;;14.23;8.93;;;;;;;18.47;84.86;100109.38;2061291;86;31846;-66
2022/08/26 03:09:01;;;;;;;15.60;8.33;;;;;;;18.46;84.82;100115.80;2061167;86;33716;-64
2022/08/26 03:12:03;;;;;;;13.25;7.92;;;;;;;18.44;84.87;100113.23;2061220;86;29339;-63
2022/08/26 03:15:08;;;;;;;17.23;8.20;;;;;;;18.43;84.81;100110.15;2093674;84;28243;-63
2022/08/26 03:18:10;;;;;;;15.32;9.18;;;;;;;18.42;84.99;100112.97;2102725;84;28705;-64
2022/08/26 03:21:15;;;;;;;17.02;8.00;;;;;;;18.40;84.98;100110.41;2102583;84;31027;-65
2022/08/26 03:24:16;;;;;;;14.38;8.20;;;;;;;18.37;84.90;100102.02;2104806;83;32934;-63
2022/08/26 03:27:18;;;;;;;14.93;9.08;;;;;;;18.36;85.09;100102.16;2105181;84;31623;-64
2022/08/26 03:30:40;;;;;;;16.48;7.53;;;;;;;18.35;85.26;100102.67;2105290;84;27706;-66
2022/08/26 03:33:41;;;;;;;11.28;7.65;;;;;;;18.34;85.20;100095.52;2104563;84;29252;-65
2022/08/26 03:36:43;;;;;;;14.07;8.65;;;;;;;18.33;85.30;100092.45;2105277;84;32215;-63
2022/08/26 03:39:44;;;;;;;11.95;8.20;;;;;;;18.33;85.28;100091.56;2105156;84;33871;-63
2022/08/26 03:42:48;;;;;;;14.90;9.30;;;;;;;18.31;85.20;100093.55;2105499;84;29483;-64
2022/08/26 03:45:49;;;;;;;12.95;9.40;;;;;;;18.28;85.21;100091.97;2105698;84;27615;-66
2022/08/26 03:48:51;;;;;;;12.45;9.45;;;;;;;18.26;85.35;100094.46;2105503;84;28609;-65
2022/08/26 03:51:52;;;;;;;15.38;8.93;;;;;;;18.25;85.31;100099.52;2105675;84;31707;-64
2022/08/26 03:54:53;;;;;;;19.12;10.32;;;;;;;18.21;85.22;100099.77;2105423;84;32939;-63
2022/08/26 03:57:54;;;;;;;14.70;8.83;;;;;;;18.19;85.36;100098.20;2105575;84;29364;-65
2022/08/26 04:00:56;;;;;;;14.28;8.23;;;;;;;18.17;85.34;100095.59;2100917;84;27685;-65
2022/08/26 04:03:57;;;;;;;16.48;8.63;;;;;;;18.16;85.29;100095.73;2060735;84;28708;-63
2022/08/26 04:07:00;;;;;;;17.73;8.08;;;;;;;18.15;85.47;100098.92;2060718;86;31117;-65
2022/08/26 04:10:03;;;;;;;16.15;8.78;;;;;;;18.15;85.41;100099.44;2060840;86;32973;-63
2022/08/26 04:13:05;;;;;;;19.10;9.45;;;;;;;18.14;85.41;100101.27;2060629;86;30260;-63
2022/08/26 04:16:06;;;;;;;17.00;9.10;;;;;;;18.15;85.54;100103.50;2060603;86;27773;-64
2022/08/26 04:19:09;;;;;;;16.27;8.03;;;;;;;18.17;85.53;100102.88;2060823;86;28682;-67
2022/08/26 04:22:11;;;;;;;18.37;9.15;;;;;;;18.19;85.54;100100.39;2060854;85;31091;-64
2022/08/26 04:25:13;;;;;;;14.18;9.30;;;;;;;18.22;85.66;100096.55;2066410;86;33228;-65
2022/08/26 04:28:14;;;;;;;11.80;8.50;;;;;;;18.24;85.58;100097.28;2066632;86;29393;-64
2022/08/26 04:31:17;;;;;;;13.55;9.10;;;;;;;18.28;85.65;100094.69;2082422;84;27638;-66
2022/08/26 04:34:18;;;;;;;15.15;9.10;;;;;;;18.32;85.74;100100.22;2039478;87;28635;-64
2022/08/26 04:37:19;;;;;;;12.68;8.98;;;;;;;18.38;85.84;100102.89;2039418;87;31012;-64
2022/08/26 04:40:22;;;;;;;15.72;9.93;;;;;;;18.44;85.81;100101.02;2039545;87;32987;-65
2022/08/26 04:43:29;;;;;;;16.67;9.73;;;;;;;18.50;85.95;100107.25;2039506;87;29337;-66
2022/08/26 04:46:28;;;;;;;19.65;10.20;;;;;;;18.59;86.01;100103.39;2039124;87;36829;-64
2022/08/26 04:49:29;;;;;;;17.05;10.88;;;;;;;18.67;86.05;100107.16;2039647;87;28618;-64
2022/08/26 04:52:31;;;;;;;13.15;10.23;;;;;;;18.76;86.18;100112.77;2039463;87;31253;-64
2022/08/26 04:55:32;;;;;;;20.77;12.20;;;;;;;18.83;86.21;100099.88;2039521;87;32919;-64
2022/08/26 04:58:33;;;;;;;19.27;11.95;;;;;;;18.95;86.36;100106.13;2039597;87;29349;-64
2022/08/26 05:01:35;;;;;;;23.52;14.10;;;;;;;19.06;86.55;100102.46;2071937;84;27694;-66
2022/08/26 05:04:37;;;;;;;22.00;14.13;;;;;;;19.20;86.88;100093.58;2078320;84;28047;-68
2022/08/26 05:07:39;;;;;;;23.00;15.32;;;;;;;19.35;87.06;100093.55;2066530;86;31254;-63
2022/08/26 05:10:44;;;;;;;14.40;11.95;;;;;;;19.53;87.09;100098.31;2066685;86;32997;-64
2022/08/26 05:13:46;;;;;;;25.02;16.12;;;;;;;19.71;87.12;100098.48;2066868;86;29331;-64
2022/08/26 05:16:48;;;;;;;27.58;15.63;;;;;;;19.90;87.21;100097.70;2067058;86;27679;-64
2022/08/26 05:19:49;;;;;;;32.28;18.77;;;;;;;20.12;87.33;100097.05;2066777;86;28086;-64
2022/08/26 05:22:51;;;;;;;35.20;18.48;;;;;;;20.30;87.03;100101.28;2085347;83;31073;-65
2022/08/26 05:25:54;;;;;;;26.27;18.17;;;;;;;20.49;86.96;100109.42;2102577;84;33782;-64
2022/08/26 05:28:56;;;;;;;34.27;18.92;;;;;;;20.68;86.84;100106.31;2103292;84;29372;-66
2022/08/26 05:31:59;;;;;;;38.13;18.90;;;;;;;20.84;86.56;100104.87;2102756;84;27622;-65
2022/08/26 05:35:01;;;;;;;27.05;17.40;;;;;;;21.00;86.30;100105.59;2102524;84;28692;-64
2022/08/26 05:38:07;;;;;;;30.20;17.30;;;;;;;21.14;85.90;100102.38;2102539;84;31022;-65
2022/08/26 05:41:31;;;;;;;36.08;16.82;;;;;;;21.29;85.80;100104.59;2102293;84;32958;-65
2022/08/26 05:44:33;;;;;;;22.90;16.07;;;;;;;21.39;85.21;100098.61;2102585;84;30194;-67
2022/08/26 05:47:34;;;;;;;33.38;15.53;;;;;;;21.56;85.10;100095.56;2102910;84;27622;-66
2022/08/26 05:50:43;;;;;;;38.00;16.67;;;;;;;21.68;84.69;100092.15;2102791;84;28607;-65
2022/08/26 05:53:44;;;;;;;31.85;16.52;;;;;;;21.83;84.57;100091.97;2073868;84;31132;-64
2022/08/26 05:56:46;;;;;;;25.68;15.65;;;;;;;21.94;84.01;100093.62;2061425;86;33036;-66
2022/08/26 05:59:49;;;;;;;32.45;16.65;;;;;;;22.05;83.85;100087.56;2061452;86;29387;-65
2022/08/26 06:02:50;;;;;;;30.50;16.82;;;;;;;22.19;83.21;100088.37;2061539;86;27638;-65
2022/08/26 06:05:51;;;;;;;23.32;15.25;;;;;;;22.30;82.70;100087.27;2061325;86;28622;-67
2022/08/26 06:08:53;;;;;;;25.25;15.08;;;;;;;22.40;82.04;100088.55;2061016;86;31073;-64
2022/08/26 06:11:57;;;;;;;25.12;14.38;;;;;;;22.52;82.05;100087.30;2061415;86;32940;-63
2022/08/26 06:14:57;;;;;;;22.07;13.13;;;;;;;22.72;82.25;100100.25;2061373;86;30150;-65
2022/08/26 06:17:59;;;;;;;28.07;13.05;;;;;;;22.95;81.21;100094.23;2061617;86;27674;-64
2022/08/26 06:21:13;;;;;;;23.32;12.78;;;;;;;23.18;80.57;100097.77;2061544;86;28710;-66
2022/08/26 06:27:35;;;;;;;24.67;12.98;;;;;;;23.75;80.10;100097.64;2109049;84;33052;-66
2022/08/26 06:30:41;;;;;;;23.10;11.90;;;;;;;24.11;79.99;100098.77;2109207;84;30158;-65
2022/08/26 06:33:43;;;;;;;16.48;12.28;;;;;;;24.51;79.75;100100.30;2109286;84;27706;-66
2022/08/26 06:36:46;;;;;;;19.30;13.08;;;;;;;24.92;78.55;100093.42;2109223;84;28639;-64
2022/08/26 06:39:47;;;;;;;16.65;12.23;;;;;;;25.30;77.57;100099.63;2109305;84;31084;-66
2022/08/26 06:42:49;;;;;;;19.23;12.07;;;;;;;25.66;77.26;100091.42;2109316;84;33715;-64
2022/08/26 06:45:51;;;;;;;21.90;12.45;;;;;;;26.04;75.80;100095.14;2109919;84;29290;-68
2022/08/26 06:48:53;;;;;;;20.88;12.13;;;;;;;26.43;75.65;100096.06;2109574;84;27627;-64
2022/08/26 06:51:58;;;;;;;20.70;12.50;;;;;;;26.91;74.94;100097.68;2105848;84;29530;-63
2022/08/26 06:54:59;;;;;;;24.57;11.97;;;;;;;27.22;73.24;100095.26;2061678;84;31068;-64
2022/08/26 06:58:01;;;;;;;18.25;11.30;;;;;;;27.56;73.02;100087.78;2061381;86;33765;-64
2022/08/26 07:01:03;;;;;;;16.97;11.38;;;;;;;27.98;71.81;100085.27;2061262;86;30102;-65
2022/08/26 07:04:06;;;;;;;19.90;12.03;;;;;;;28.42;71.16;100086.14;2061383;86;27594;-64
2022/08/26 07:07:07;;;;;;;21.50;11.88;;;;;;;28.84;70.48;100090.41;2060988;86;28879;-65
2022/08/26 07:10:09;;;;;;;22.75;12.10;;;;;;;29.13;69.37;100087.08;2061230;86;31018;-64
2022/08/26 07:13:11;;;;;;;23.87;11.78;;;;;;;29.37;68.35;100086.28;2061224;86;32998;-65
2022/08/26 07:16:16;;;;;;;26.48;12.20;;;;;;;29.59;67.57;100090.30;2061398;86;29333;-64
2022/08/26 07:19:19;;;;;;;19.57;11.95;;;;;;;29.79;66.33;100087.59;2061461;86;28194;-64
2022/08/26 07:22:20;;;;;;;18.30;11.28;;;;;;;29.99;65.99;100089.05;2070358;84;28718;-65
2022/08/26 07:25:21;;;;;;;22.45;10.63;;;;;;;30.29;65.42;100096.94;2103637;84;31846;-65
2022/08/26 07:28:23;;;;;;;16.07;10.93;;;;;;;30.44;64.38;100091.22;2102661;84;32835;-64
2022/08/26 07:31:31;;;;;;;20.70;11.53;;;;;;;30.50;63.16;100093.14;2102623;84;29336;-64
2022/08/26 07:34:32;;;;;;;18.40;10.72;;;;;;;30.63;62.38;100094.22;2102782;84;27724;-64
2022/08/26 07:37:34;;;;;;;21.62;11.57;;;;;;;30.75;62.27;100093.37;2102466;84;28650;-65
2022/08/26 07:40:36;;;;;;;20.65;10.58;;;;;;;30.81;60.70;100088.89;2102606;84;31030;-64
2022/08/26 07:43:37;;;;;;;16.10;9.03;;;;;;;30.81;59.97;100093.03;2102598;84;33001;-64
2022/08/26 07:46:41;;;;;;;23.55;10.53;;;;;;;30.82;59.92;100093.36;2074173;84;29335;-65
2022/08/26 07:49:42;;;;;;;24.13;11.20;;;;;;;30.89;59.01;100095.56;2061797;86;27698;-65
2022/08/26 07:52:43;;;;;;;23.00;10.88;;;;;;;30.92;57.74;100087.38;2061261;86;28041;-65
2022/08/26 07:55:45;;;;;;;17.98;10.25;;;;;;;30.92;57.37;100083.23;2061219;86;31888;-64
2022/08/26 07:58:46;;;;;;;15.28;9.53;;;;;;;31.11;58.05;100088.94;2061351;86;33019;-64
2022/08/26 08:01:47;;;;;;;16.30;10.40;;;;;;;31.24;57.43;100088.05;2061361;86;29350;-64
2022/08/26 08:04:49;;;;;;;20.55;10.32;;;;;;;31.29;56.19;100084.94;2061526;86;27772;-64
2022/08/26 08:07:51;;;;;;;21.50;11.35;;;;;;;31.39;55.91;100082.27;2060959;86;28721;-65
2022/08/26 08:10:53;;;;;;;13.45;7.40;;;;;;;31.37;55.14;100079.70;2061275;86;31872;-64
2022/08/26 08:13:55;;;;;;;16.77;9.93;;;;;;;31.46;55.49;100079.78;2061259;86;33735;-65
2022/08/26 08:16:56;;;;;;;22.62;11.10;;;;;;;31.69;55.25;100083.91;2093026;84;29336;-64
2022/08/26 08:19:57;;;;;;;21.33;7.55;;;;;;;31.80;53.06;100086.55;2102800;84;27788;-66
2022/08/26 08:23:02;;;;;;;25.45;10.60;;;;;;;31.68;54.11;100080.30;2102604;84;28654;-64
2022/08/26 08:26:08;;;;;;;28.00;11.43;;;;;;;31.69;53.85;100082.52;2102270;83;31020;-64
2022/08/26 08:29:10;;;;;;;13.95;7.00;;;;;;;31.79;54.07;100077.92;2102213;84;33095;-64
2022/08/26 08:32:12;;;;;;;16.10;10.20;;;;;;;31.93;54.12;100080.95;2102676;84;29327;-65
2022/08/26 08:35:16;;;;;;;22.75;10.45;;;;;;;32.17;53.47;100078.97;2102809;84;27694;-65
2022/08/26 08:38:18;;;;;;;16.95;9.58;;;;;;;32.18;51.14;100073.75;2102722;84;28623;-65
2022/08/26 08:41:27;;;;;;;18.85;10.35;;;;;;;32.09;52.25;100076.77;2102703;84;30446;-65
2022/08/26 08:44:29;;;;;;;15.50;8.95;;;;;;;32.13;51.94;100073.88;2102654;83;32980;-65
2022/08/26 08:47:38;;;;;;;17.60;8.43;;;;;;;32.15;51.55;100064.48;2073963;84;29541;-65
2022/08/26 08:50:49;;;;;;;16.50;10.90;;;;;;;31.97;51.21;100066.11;2102409;84;27627;-66
2022/08/26 08:53:53;;;;;;;20.68;8.85;;;;;;;31.76;51.59;100060.39;2102641;84;28803;-67
2022/08/26 08:57:14;;;;;;;16.45;10.03;;;;;;;31.59;50.53;100064.16;2102664;84;30496;-68
2022/08/26 09:00:17;;;;;;;21.27;10.13;;;;;;;31.38;50.86;100060.63;2102545;84;33580;-65
2022/08/26 09:03:43;;;;;;;17.87;7.20;;;;;;;31.27;50.29;100060.81;2082645;84;30790;-65
2022/08/26 09:06:47;;;;;;;13.38;6.12;;;;;;;31.09;50.41;100056.48;2102364;84;27682;-65
2022/08/26 09:09:56;;;;;;;17.48;8.50;;;;;;;30.97;49.51;100057.13;2102693;84;29477;-65
2022/08/26 09:12:58;;;;;;;13.32;6.80;;;;;;;31.03;50.25;100052.12;2102499;84;31812;-64
2022/08/26 09:16:10;;;;;;;11.55;6.10;;;;;;;31.06;50.58;100057.74;2064981;85;32971;-65
2022/08/26 09:19:26;;;;;;;14.90;7.08;;;;;;;31.10;49.84;100046.56;2060926;86;28994;-65
2022/08/26 09:22:36;;;;;;;12.68;5.45;;;;;;;31.11;49.83;100052.97;2061426;86;27697;-66
2022/08/26 09:25:58;;;;;;;15.32;6.75;;;;;;;31.18;48.05;100047.75;2064432;86;28651;-65
2022/08/26 09:29:03;;;;;;;16.65;7.50;;;;;;;31.08;47.74;100047.31;2058549;84;31937;-65
2022/08/26 09:32:24;;;;;;;14.00;7.17;;;;;;;31.01;47.22;100043.73;2066703;86;32349;-66
2022/08/26 09:35:31;;;;;;;12.75;7.72;;;;;;;30.87;48.15;100036.83;2066852;86;29341;-65
2022/08/26 09:38:33;;;;;;;14.98;8.18;;;;;;;30.85;48.38;100030.70;2066839;86;27630;-65
2022/08/26 09:41:35;;;;;;;13.65;7.25;;;;;;;30.82;47.63;100039.42;2066957;86;28755;-66
2022/08/26 09:44:59;;;;;;;19.52;8.50;;;;;;;30.61;47.15;100038.60;2066588;86;31902;-65
2022/08/26 09:48:01;;;;;;;14.38;6.65;;;;;;;30.48;46.15;100033.06;1964175;90;33807;-65
2022/08/26 09:51:08;;;;;;;11.45;6.80;;;;;;;30.36;48.13;100034.78;1964254;90;29345;-64
2022/08/26 09:54:25;;;;;;;11.90;6.72;;;;;;;30.28;47.57;100026.18;1962115;90;28164;-67
2022/08/26 09:57:34;;;;;;;16.32;6.22;;;;;;;30.20;45.71;100025.83;1964213;90;28684;-66
2022/08/26 10:00:44;;;;;;;4.50;3.12;;;;;;;30.13;47.37;100020.86;1944574;90;31439;-66
2022/08/26 10:03:45;;;;;;;17.90;6.33;;;;;;;30.06;47.68;100014.46;1959021;90;33009;-65
2022/08/26 10:07:06;;;;;;;14.73;6.12;;;;;;;29.98;47.63;100015.01;1964287;90;30086;-66
2022/08/26 10:10:28;;;;;;;10.72;4.37;;;;;;;29.98;47.41;100012.76;1963987;90;27817;-64
2022/08/26 10:13:41;;;;;;;6.55;4.15;;;;;;;29.86;47.25;100008.39;1964206;90;29515;-64
2022/08/26 10:17:03;;;;;;;7.15;3.37;;;;;;;29.77;46.71;100010.50;1937212;90;31079;-64
2022/08/26 10:20:13;;;;;;;9.40;5.53;;;;;;;29.74;47.35;100005.91;1919328;92;32990;-65
2022/08/26 10:23:23;;;;;;;9.18;5.62;;;;;;;29.69;46.70;100007.41;1935469;89;30227;-64
2022/08/26 10:26:35;;;;;;;7.78;3.60;;;;;;;29.71;46.92;100006.64;2008913;86;27798;-65
2022/08/26 10:29:42;;;;;;;13.93;4.80;;;;;;;29.71;46.98;100006.64;1993672;88;28686;-64
2022/08/26 10:33:01;;;;;;;8.03;5.25;;;;;;;29.75;44.87;99999.32;2010657;88;32440;-64
2022/08/26 10:36:47;;;;;;;8.13;4.20;;;;;;;29.74;43.92;99994.86;2011620;88;33770;-65
2022/08/26 10:39:15;;;;;;;10.32;4.45;;;;;;;29.71;44.26;99996.14;2008516;88;29347;-64
2022/08/26 10:42:37;;;;;;;11.28;4.33;;;;;;;29.64;44.86;99991.99;2011664;88;27694;-65
2022/08/26 10:45:50;;;;;;;9.43;4.28;;;;;;;29.64;43.54;99987.84;2012253;87;28773;-65
2022/08/26 10:49:05;;;;;;;10.65;4.58;;;;;;;29.65;43.62;99979.02;1997536;89;31051;-66
2022/08/26 10:52:21;;;;;;;8.88;3.60;;;;;;;29.60;44.57;99983.80;1977457;89;33761;-64
2022/08/26 10:55:37;;;;;;;8.10;4.55;;;;;;;29.53;44.75;99978.27;2026394;85;29393;-66
2022/08/26 10:59:07;;;;;;;6.83;2.30;;;;;;;29.48;43.75;99980.80;2075561;85;27850;-65
2022/08/26 11:02:25;;;;;;;9.90;4.87;;;;;;;29.38;45.01;99975.67;1966396;89;29194;-65
2022/08/26 11:05:26;;;;;;;15.70;5.92;;;;;;;29.39;43.93;99977.38;1980104;89;31120;-64
2022/08/26 11:08:28;;;;;;;8.43;3.22;;;;;;;29.49;43.89;99970.08;1966018;90;33086;-66
2022/08/26 11:11:47;;;;;;;9.90;3.37;;;;;;;29.55;44.56;99966.49;1965855;90;30136;-63
2022/08/26 11:14:49;;;;;;;5.42;3.58;;;;;;;29.49;44.30;99972.00;1962908;89;27739;-64
2022/08/26 11:17:55;;;;;;;7.42;4.00;;;;;;;29.50;45.14;99966.27;1933808;91;28686;-63
2022/08/26 11:20:57;;;;;;;10.95;3.77;;;;;;;29.49;43.70;99959.04;1933680;91;31158;-65
2022/08/26 11:23:58;;;;;;;15.53;4.60;;;;;;;29.53;43.40;99960.33;1984788;89;32966;-63
2022/08/26 11:27:00;;;;;;;9.65;4.90;;;;;;;29.50;42.87;99953.84;1967968;89;29396;-64
2022/08/26 11:30:15;;;;;;;11.50;5.00;;;;;;;29.55;42.77;99948.55;1966182;90;27687;-64
2022/08/26 11:33:43;;;;;;;8.48;4.15;;;;;;;29.61;42.61;99948.23;1966135;90;28738;-64
2022/08/26 11:36:57;;;;;;;6.90;4.22;;;;;;;29.62;43.20;99944.42;1931874;92;32254;-64
2022/08/26 11:40:03;;;;;;;6.95;4.28;;;;;;;29.66;42.26;99940.70;1979200;89;33828;-64
2022/08/26 11:43:10;;;;;;;10.78;3.80;;;;;;;29.66;42.76;99939.31;2001700;88;29345;-64
2022/08/26 11:46:12;;;;;;;11.68;4.10;;;;;;;29.70;43.19;99936.45;2060331;85;27683;-65
2022/08/26 11:49:13;;;;;;;14.83;5.03;;;;;;;29.73;42.87;99936.04;2047153;85;29515;-65
2022/08/26 11:52:21;;;;;;;12.53;4.58;;;;;;;29.76;41.10;99934.24;2074058;85;31405;-65
2022/08/26 11:55:22;;;;;;;12.20;4.28;;;;;;;29.81;41.53;99939.13;2074199;85;33077;-64
2022/08/26 11:58:26;;;;;;;9.23;4.00;;;;;;;29.82;41.28;99934.75;2074218;85;29370;-66
2022/08/26 12:01:34;;;;;;;;;;;;;;;29.80;41.60;99925.83;2076694;85;27726;-66
2022/08/26 12:04:38;;;;;;;9.00;3.95;;;;;;;29.81;41.44;99923.94;2073981;85;28720;-65
2022/08/26 12:07:40;;;;;;;6.83;3.87;;;;;;;29.80;41.12;99921.69;2074244;85;31036;-65
2022/08/26 12:10:41;;;;;;;10.35;4.05;;;;;;;29.80;41.18;99912.02;2074081;85;33020;-65
2022/08/26 12:13:57;;;;;;;7.60;4.12;;;;;;;29.83;40.14;99915.74;2074191;85;30122;-66
2022/08/26 12:17:12;;;;;;;6.53;3.67;;;;;;;29.85;41.46;99905.89;2041790;86;27956;-67
2022/08/26 12:20:47;;;;;;;6.75;4.20;;;;;;;29.80;41.92;99905.66;2033336;87;29487;-65
2022/08/26 12:23:53;;;;;;;15.95;4.62;;;;;;;29.81;40.71;99897.70;2041700;87;31148;-65
2022/08/26 12:27:16;;;;;;;13.45;4.80;;;;;;;29.81;41.15;99899.08;2059756;84;32963;-65
2022/08/26 12:30:22;;;;;;;8.25;4.22;;;;;;;29.82;39.51;99903.55;2066657;86;29386;-67
2022/08/26 12:33:25;;;;;;;13.50;4.75;;;;;;;29.80;39.65;99899.59;2066808;86;28139;-66
2022/08/26 12:36:47;;;;;;;6.87;4.50;;;;;;;29.81;40.05;99899.91;2066465;86;28833;-66
2022/08/26 12:39:48;;;;;;;9.90;4.17;;;;;;;29.83;40.21;99889.52;2064358;86;31159;-71
2022/08/26 12:42:50;;;;;;;9.58;4.17;;;;;;;29.87;41.10;99892.69;2068030;86;33746;-66
2022/08/26 12:45:59;;;;;;;11.95;4.28;;;;;;;29.89;39.58;99885.59;2034307;86;29343;-73
2022/08/26 12:49:01;;;;;;;6.85;4.05;;;;;;;29.90;40.04;99885.91;2105494;84;27713;-72
2022/08/26 12:52:06;;;;;;;7.90;3.80;;;;;;;29.90;39.26;99881.77;2104346;84;28741;-72
2022/08/26 12:55:25;;;;;;;7.65;3.50;;;;;;;29.82;39.44;99876.77;2060960;86;31098;-73
2022/08/26 12:58:31;;;;;;;9.15;4.15;;;;;;;29.83;39.20;99870.73;2073020;85;33809;-73
2022/08/26 13:01:41;;;;;;;9.45;3.75;;;;;;;29.84;39.23;99869.66;2094761;85;29337;-74
2022/08/26 13:04:44;;;;;;;12.23;4.33;;;;;;;29.86;39.13;99864.23;2094455;84;27720;-72
2022/08/26 13:08:14;;;;;;;7.30;4.43;;;;;;;29.88;39.28;99863.17;2106314;84;28109;-69
2022/08/26 13:11:20;;;;;;;6.87;3.87;;;;;;;29.91;39.37;99861.38;2042174;85;31058;-68
2022/08/26 13:14:23;;;;;;;8.00;4.20;;;;;;;29.92;38.33;99848.71;2031545;87;32986;-68
2022/08/26 13:17:26;;;;;;;15.18;4.28;;;;;;;29.95;38.98;99847.45;2066018;86;30137;-69
2022/08/26 13:20:28;;;;;;;9.20;3.42;;;;;;;29.93;39.58;99844.89;2066408;86;27725;-67
2022/08/26 13:23:30;;;;;;;10.20;3.90;;;;;;;29.87;39.56;99841.59;2063613;84;28788;-69
2022/08/26 13:26:31;;;;;;;10.08;4.00;;;;;;;29.87;39.69;99840.21;2069599;84;31857;-68
2022/08/26 13:29:33;;;;;;;9.98;4.42;;;;;;;29.81;39.70;99839.71;2073085;85;33899;-68
2022/08/26 13:32:34;;;;;;;17.35;4.25;;;;;;;29.88;38.54;99832.80;2100015;84;29336;-67
2022/08/26 13:35:35;;;;;;;11.33;4.12;;;;;;;29.96;38.74;99832.07;2106630;84;27798;-65
2022/08/26 13:38:36;;;;;;;9.25;4.10;;;;;;;30.01;38.97;99826.75;2106392;84;28747;-66
2022/08/26 13:41:38;;;;;;;8.38;4.15;;;;;;;30.06;39.20;99823.85;2098658;84;31011;-66
2022/08/26 13:44:41;;;;;;;10.75;3.08;;;;;;;30.09;39.04;99816.00;2077636;84;32944;-67
2022/08/26 13:47:43;;;;;;;9.75;4.47;;;;;;;30.09;39.72;99809.09;2077872;84;29410;-68
2022/08/26 13:50:46;;;;;;;11.65;4.28;;;;;;;30.07;39.49;99810.36;2085036;84;27665;-67
2022/08/26 13:53:49;;;;;;;9.75;4.28;;;;;;;29.97;39.14;99807.53;2070919;85;28728;-66
2022/08/26 13:56:50;;;;;;;6.35;3.05;;;;;;;29.93;39.46;99806.22;2066901;86;31872;-66
2022/08/26 13:59:52;;;;;;;10.03;3.85;;;;;;;29.93;39.97;99799.86;2066838;86;32943;-67
2022/08/26 14:02:54;;;;;;;8.80;3.45;;;;;;;29.96;39.23;99799.44;2066667;86;28734;-67
2022/08/26 14:05:56;;;;;;;5.33;4.03;;;;;;;29.95;39.14;99797.73;2069284;85;28267;-67
2022/08/26 14:08:57;;;;;;;8.88;3.83;;;;;;;29.92;39.53;99795.41;2040042;87;28707;-67
2022/08/26 14:11:59;;;;;;;11.35;3.62;;;;;;;29.93;39.32;99790.20;2073283;84;31798;-67
2022/08/26 14:15:00;;;;;;;7.42;3.92;;;;;;;29.91;39.12;99795.92;2016564;87;32988;-67